ADDS METAR Data INFO
IDs: Format: Raw Decoded Include TAF

Data at: 0733 UTC 18 Oct 2017

PAVD 180656Z AUTO 01004KT 10SM FEW070 BKN110 01/M03 A2934 RMK AO2 SLP959 T00111033 PWINO FZRANO $
PAVD 180556Z 09004KT 10SM BKN070 02/M03 A2935 RMK AO2 SLP962 0551Z WEA: NONE TWR WND 10005KT 6//// T00221028 10050 20011 58002 $
PAVD 180456Z 08003KT 10SM BKN070 03/M03 A2935 RMK AO2 SLP963 0451Z WEA: NONE TWR WND 35004KT T00281033 $
PAVD 180356Z 00000KT 10SM BKN070 03/M02 A2935 RMK AO2 SLP965 0351Z WEA: NONE TWR WND 00000KT T00281022 $
PAVD 180256Z 00000KT 10SM FEW030 BKN070 BKN150 03/M02 A2935 RMK AO2 SLP964 0251Z WEA: VCSH ALQDS TWR WND 35004KT 6//// T00331022 55004 $
PAVD 180156Z 03004KT 10SM FEW030 BKN070 BKN150 03/M03 A2935 RMK AO2 SLP963 0151Z WEA: NONE TWR WND 33005KT T00331028 $
PAVD 180056Z 13008KT 10SM FEW035 BKN080 BKN140 04/M03 A2936 RMK AO2 SLP965 0051Z WEA: VCSH NE-E W TWR WND 12007KT T00391028 $
PAVD 172356Z 14006KT 10SM FEW030 BKN070 BKN140 05/M04 A2936 RMK AO2 SLP968 2351Z WEA: VCSH W TWR WND VRB04KT 6//// T00501039 10050 20033 56015 $
PAVD 172256Z 18006KT 10SM FEW035 BKN065 BKN090 05/M04 A2938 RMK AO2 SLP973 2251Z WEA: VCSH S SW TWR WND 12008KT T00501044 $
PAVD 172156Z 00000KT 10SM FEW035 BKN065 BKN090 04/M04 A2939 RMK AO2 SLP977 2151Z WEA: NONE TWR WND 15004KT T00441044 $
PAVD 172056Z 00000KT 10SM FEW025 BKN060 OVC090 04/M04 A2941 RMK AO2 SLP983 2051Z WEA: VCSH E-S TWR WND 03003KT 6//// T00391044 58008 $
PAVD 171956Z 00000KT 10SM FEW040 BKN065 OVC090 04/M04 A2943 RMK AO2 SLP989 1951Z WEA: NONE TWR WND 00000KT T00391044 $
PAVD 171856Z 14005KT 10SM FEW025 BKN050 OVC060 04/M05 A2944 RMK AO2 SLP993 1851Z WEA: VCSH ALQDS TWR WND 13006KT T00391050 $
PAVD 171756Z 00000KT 10SM FEW060 BKN075 BKN120 04/M06 A2943 RMK AO2 SLP991 1751Z WEA: NONE TWR WND 31004KT 6//// T00391056 10044 20022 58010 $
PAVD 171656Z 00000KT 10SM SCT060 BKN080 BKN120 03/M05 A2944 RMK AO2 SLP995 1651Z WEA: VCSH E W VIRGA S TWR WND 14004KT T00331050 $
PAVD 171556Z 00000KT 10SM SCT050 BKN060 BKN090 04/M06 A2946 RMK AO2 SLP000 1551Z WEA: NONE TWR WND 32003KT T00391061 $
PAVD 171456Z 00000KT 10SM FEW035 BKN065 BKN090 03/M05 A2946 RMK AO2 SLP001 1451Z WEA: NONE SNB05SNE25 TWR WND 00000KT 6//// T00281050 56012 $
PAVD 171410Z 00000KT 10SM -SN FEW035 BKN065 OVC090 03/M06 A2947 RMK SNB05 TWR WND 33004KT
PAVD 171356Z AUTO 07004KT 10SM FEW065 OVC090 02/M04 A2948 RMK AO2 SLP006 T00221044 PWINO FZRANO $
PAVD 171256Z AUTO 00000KT 10SM OVC095 04/M06 A2948 RMK AO2 SLP008 T00441061 PWINO $
PAVD 171156Z AUTO 01004KT 10SM FEW065 OVC090 03/M06 A2950 RMK AO2 SLP013 6//// 7//// T00331056 10056 20022 58006 PWINO $
PAVD 171056Z AUTO 00000KT 10SM SCT070 OVC090 04/M06 A2951 RMK AO2 SLP016 T00441061 PWINO $
PAVD 170956Z AUTO 12004KT 10SM OVC090 03/M04 A2951 RMK AO2 SLP018 T00331044 PWINO $
PAVD 170856Z AUTO 00000KT 10SM OVC080 05/M06 A2952 RMK AO2 SLP020 T00501061 400830017 53003 PWINO $
PAVD 170756Z AUTO 10004KT 10SM OVC085 06/M07 A2951 RMK AO2 SLP018 T00561067 PWINO $
PAVD 170656Z AUTO 30003KT 10SM OVC085 03/M06 A2951 RMK AO2 SLP016 0551Z WEA: NONE TWR WND 20003KT T00331061 PWINO $
PAVD 170556Z 00000KT 10SM SCT090 02/M06 A2951 RMK AO2 SLP017 0551Z WEA: NONE TWR WND 20003KT 6//// T00221056 10072 20022 51008 $
PAVD 170456Z 36004KT 10SM FEW090 04/M06 A2950 RMK AO2 SLP014 0451Z WEA: NONE TWR WND 23005KT T00391056 $
PAVD 170356Z 00000KT 10SM SCT090 04/M06 A2949 RMK AO2 SLP012 0351Z WEA: NONE TWR WND 18006KT T00441056 $
PAVD 170256Z 00000KT 10SM BKN100 06/M07 A2948 RMK AO2 SLP008 0251Z WEA: NONE TWR WND 33008KT 6//// T00561067 51003 $
PAVD 170156Z 06010G19KT 10SM BKN100 07/M07 A2948 RMK AO2 SLP007 0151Z WEA: NONE TWR WND 04014G22KT T00671067 $
PAVD 170056Z COR 08014KT 10SM FEW080 BKN120 07/M07 A2948 RMK AO2 SLP007 0051Z WEA: NONE TWR WND 06020KT T00671067 $
PAVD 162356Z 09013KT 10SM FEW080 BKN120 07/M07 A2947 RMK AO2 SLP005 2351Z WEA: NONE TWR WND 05014G20 020V080 6//// T00721067 10083 20039 53000 $
PAVD 162256Z 09015G26KT 10SM FEW080 SCT150 07/M07 A2947 RMK AO2 PK WND 08026/2247 SLP003 2251Z WEA: NONE TWR WND 03012G22KT 360V060 T00721072 $
PAVD 162156Z 08014G21KT 10SM FEW070 FEW150 08/M07 A2947 RMK AO2 SLP003 2151Z WEA: NONE TWR WND 05011G21KT T00781067 $
PAVD 162056Z COR 07009G14KT 10SM FEW070 FEW150 08/M06 A2947 RMK AO2 SLP004 2051Z WEA: NONE TWR WND 06013G22KT 6//// T00781061 51001 $
PAVD 161956Z 21003KT 10SM FEW070 FEW150 06/M04 A2947 RMK AO2 SLP004 1951Z WEA: NONE TWR WND 34005KT T00611044 $